Time;durP1;ratioP1;P1;durP2;ratioP2;P2;SDS_P1;SDS_P2;PMS_P1;PMS_P2;Temp;Humidity;BMP_temperature;BMP_pressure;BME280_temperature;BME280_humidity;BME280_pressure;Samples;Min_cycle;Max_cycle;Signal;HPM_P1;HPM_P2
2021/10/02 00:35:00;;;;;;;10.88;8.50;;;13.70;99.90;;;;;;4966668;28;20031;-87
2021/10/02 00:46:05;;;;;;;9.70;8.35;;;13.70;99.90;;;;;;4976555;28;20033;-88
2021/10/02 00:48:31;;;;;;;10.45;9.35;;;13.70;99.90;;;;;;4980668;28;20018;-87
2021/10/02 00:51:00;;;;;;;10.85;9.20;;;13.70;99.90;;;;;;4985585;28;20089;-87
2021/10/02 00:53:26;;;;;;;10.40;8.82;;;13.70;99.90;;;;;;4976539;28;20019;-87
2021/10/02 00:56:11;;;;;;;11.38;9.65;;;13.70;99.90;;;;;;4995122;28;20027;-87
2021/10/02 00:58:37;;;;;;;11.30;9.18;;;13.70;99.90;;;;;;4969002;28;20534;-87
2021/10/02 01:01:05;;;;;;;10.98;9.88;;;13.70;99.90;;;;;;4971889;28;20054;-87
2021/10/02 01:03:44;;;;;;;12.25;11.00;;;13.70;99.90;;;;;;4978714;28;20022;-88
2021/10/02 01:07:00;;;;;;;13.07;10.63;;;13.70;99.90;;;;;;4976513;28;20023;-87
2021/10/02 01:10:32;;;;;;;12.77;11.30;;;13.80;99.90;;;;;;4981319;28;20034;-88
2021/10/02 01:13:16;;;;;;;13.18;11.48;;;13.80;99.90;;;;;;4951230;28;20042;-88
2021/10/02 01:15:57;;;;;;;13.88;12.15;;;13.80;99.90;;;;;;4978709;28;20022;-87
2021/10/02 01:18:34;;;;;;;16.05;12.15;;;13.80;99.90;;;;;;4989884;28;20019;-88
2021/10/02 01:21:30;;;;;;;12.85;11.15;;;13.80;99.90;;;;;;4977567;28;20022;-87
2021/10/02 01:24:22;;;;;;;14.00;11.30;;;13.80;99.90;;;;;;4972444;28;20402;-88
2021/10/02 01:27:00;;;;;;;11.15;9.95;;;13.80;99.90;;;;;;4948640;28;20113;-89
2021/10/02 01:29:35;;;;;;;10.98;9.32;;;13.80;99.90;;;;;;4976200;28;20033;-88
2021/10/02 01:32:11;;;;;;;13.43;9.45;;;13.80;99.90;;;;;;4992124;28;20031;-87
2021/10/02 01:48:14;;;;;;;12.90;10.88;;;13.80;99.90;;;;;;4996630;28;20068;-87
2021/10/02 01:50:40;;;;;;;14.45;11.13;;;13.80;99.90;;;;;;4979071;28;20038;-86
2021/10/02 01:53:07;;;;;;;13.48;10.85;;;13.80;99.90;;;;;;4979518;28;20045;-86
2021/10/02 01:55:35;;;;;;;13.07;9.93;;;13.80;99.90;;;;;;4978363;28;20510;-86
2021/10/02 01:58:08;;;;;;;15.65;12.45;;;13.80;99.90;;;;;;4979147;28;20026;-87
2021/10/02 02:00:46;;;;;;;13.85;11.77;;;13.80;99.90;;;;;;4979429;28;20446;-87
2021/10/02 02:03:18;;;;;;;17.08;10.85;;;13.80;99.90;;;;;;4979200;28;20454;-88
2021/10/02 02:05:46;;;;;;;14.53;10.67;;;13.80;99.90;;;;;;4979342;28;20478;-87
2021/10/02 02:08:15;;;;;;;14.65;11.63;;;13.80;99.90;;;;;;4979322;28;20294;-87
2021/10/02 02:10:44;;;;;;;12.25;10.02;;;13.80;99.90;;;;;;4978985;28;20026;-87
2021/10/02 02:13:14;;;;;;;13.07;10.85;;;13.80;99.90;;;;;;4978782;28;20018;-87
2021/10/02 02:15:42;;;;;;;13.65;10.88;;;13.80;99.90;;;;;;4996159;28;20026;-86
2021/10/02 02:18:15;;;;;;;13.63;11.38;;;13.70;99.90;;;;;;4996314;28;20026;-87
2021/10/02 02:20:58;;;;;;;15.67;10.27;;;13.80;99.90;;;;;;4978817;28;20113;-86
2021/10/02 02:23:27;;;;;;;14.02;9.73;;;13.70;99.90;;;;;;4978958;28;20268;-87
2021/10/02 02:25:55;;;;;;;12.65;9.93;;;13.70;99.90;;;;;;4979464;28;20049;-87
2021/10/02 02:28:23;;;;;;;12.75;10.13;;;13.70;99.90;;;;;;4978846;28;20097;-87
2021/10/02 02:30:50;;;;;;;14.70;10.77;;;13.70;99.90;;;;;;4978885;28;20026;-87
2021/10/02 02:33:18;;;;;;;14.63;11.43;;;13.70;99.90;;;;;;4977737;28;20035;-87
2021/10/02 02:35:46;;;;;;;14.88;11.38;;;13.70;99.90;;;;;;4978150;28;20037;-87
2021/10/02 02:38:13;;;;;;;13.13;10.32;;;13.70;99.90;;;;;;4978565;28;20041;-87
2021/10/02 02:41:16;;;;;;;11.20;10.00;;;13.70;99.90;;;;;;4978762;28;20018;-87
2021/10/02 02:44:05;;;;;;;13.30;10.75;;;13.70;99.90;;;;;;4978763;28;20137;-87
2021/10/02 02:46:36;;;;;;;16.15;10.35;;;13.70;99.90;;;;;;4994256;28;20030;-86
2021/10/02 02:49:02;;;;;;;11.65;9.20;;;13.70;99.90;;;;;;4978948;28;20463;-86
2021/10/02 02:51:53;;;;;;;13.45;10.32;;;13.70;99.90;;;;;;4994273;28;20058;-87
2021/10/02 02:54:34;;;;;;;13.07;11.02;;;13.70;99.90;;;;;;4996119;28;20015;-87
2021/10/02 03:00:13;;;;;;;14.88;12.27;;;13.70;99.90;;;;;;4993436;28;20133;-87
2021/10/02 03:05:50;;;;;;;15.15;11.95;;;13.70;99.90;;;;;;4970452;28;20026;-87
2021/10/02 03:08:19;;;;;;;13.25;11.52;;;13.70;99.90;;;;;;4958372;28;20088;-87
2021/10/02 03:10:52;;;;;;;14.57;11.50;;;13.70;99.90;;;;;;4958695;28;20398;-88
2021/10/02 03:13:22;;;;;;;12.55;11.25;;;13.70;99.90;;;;;;4958197;28;20019;-87
2021/10/02 03:15:49;;;;;;;15.00;10.27;;;13.70;99.90;;;;;;4958674;28;20027;-87
2021/10/02 03:18:17;;;;;;;13.15;11.70;;;13.70;99.90;;;;;;4958503;28;20154;-87
2021/10/02 03:20:44;;;;;;;13.73;10.20;;;13.70;99.90;;;;;;4958201;28;20085;-87
2021/10/02 03:23:11;;;;;;;13.70;10.88;;;13.60;99.90;;;;;;4958437;28;20391;-88
2021/10/02 03:25:38;;;;;;;14.45;11.65;;;13.70;99.90;;;;;;4958497;28;20026;-87
2021/10/02 03:28:04;;;;;;;14.85;12.07;;;13.70;99.90;;;;;;4942146;28;20034;-87
2021/10/02 03:30:31;;;;;;;14.57;11.88;;;13.70;99.90;;;;;;4942585;28;20031;-87
2021/10/02 03:32:58;;;;;;;17.13;12.98;;;13.70;99.90;;;;;;4975614;28;20023;-87
2021/10/02 03:35:26;;;;;;;16.05;12.57;;;13.70;99.90;;;;;;4975376;28;20019;-87
2021/10/02 03:37:52;;;;;;;19.35;13.85;;;13.70;99.90;;;;;;4958321;28;20048;-88
2021/10/02 03:40:19;;;;;;;17.05;13.35;;;13.70;99.90;;;;;;4958347;28;20111;-87
2021/10/02 03:42:51;;;;;;;16.55;11.98;;;13.70;99.90;;;;;;4957817;28;20054;-88
2021/10/02 03:45:18;;;;;;;14.55;11.98;;;13.70;99.90;;;;;;4957993;28;20390;-88
2021/10/02 03:47:44;;;;;;;14.75;12.30;;;13.70;99.90;;;;;;4958340;28;20136;-87
2021/10/02 03:50:11;;;;;;;16.83;12.75;;;13.60;99.90;;;;;;4957704;28;20035;-88
2021/10/02 03:52:37;;;;;;;13.82;10.98;;;13.70;99.90;;;;;;4957835;28;20066;-88
2021/10/02 03:55:05;;;;;;;14.82;12.50;;;13.70;99.90;;;;;;4942112;28;20031;-88
2021/10/02 03:57:31;;;;;;;15.32;11.45;;;13.60;99.90;;;;;;4958276;28;20034;-87
2021/10/02 03:59:57;;;;;;;15.82;11.57;;;13.60;99.90;;;;;;4957613;28;20031;-87
2021/10/02 04:02:23;;;;;;;13.82;11.85;;;13.60;99.90;;;;;;4974855;28;20019;-88
2021/10/02 04:04:51;;;;;;;15.50;12.65;;;13.60;99.90;;;;;;4957862;28;20045;-87
2021/10/02 04:07:17;;;;;;;13.73;11.88;;;13.60;99.90;;;;;;4975502;28;20332;-88
2021/10/02 04:09:43;;;;;;;12.45;10.93;;;13.60;99.90;;;;;;4957901;28;20066;-88
2021/10/02 04:12:10;;;;;;;14.63;12.20;;;13.60;99.90;;;;;;4975389;28;20106;-88
2021/10/02 04:14:36;;;;;;;19.90;15.60;;;13.50;99.90;;;;;;4957860;28;20019;-88
2021/10/02 04:17:02;;;;;;;15.57;13.23;;;13.50;99.90;;;;;;4957920;28;20023;-88
2021/10/02 04:19:32;;;;;;;16.90;13.30;;;13.40;99.90;;;;;;4979033;28;20018;-88
2021/10/02 04:21:58;;;;;;;15.27;12.13;;;13.40;99.90;;;;;;4961633;28;20081;-88
2021/10/02 04:24:25;;;;;;;16.38;13.40;;;13.40;99.90;;;;;;4962116;28;20061;-88
2021/10/02 04:26:52;;;;;;;21.85;14.80;;;13.40;99.90;;;;;;4961858;28;20112;-88
2021/10/02 04:29:18;;;;;;;15.38;12.02;;;13.40;99.90;;;;;;4961189;28;20034;-87
2021/10/02 04:31:44;;;;;;;16.23;12.30;;;13.30;99.90;;;;;;4961366;28;20035;-88
2021/10/02 04:34:10;;;;;;;16.25;12.02;;;13.30;99.90;;;;;;4945236;28;20058;-88
2021/10/02 04:36:37;;;;;;;20.85;14.00;;;13.30;99.90;;;;;;4961599;28;20114;-87
2021/10/02 04:39:03;;;;;;;17.40;13.10;;;13.30;99.90;;;;;;4961271;28;20126;-88
2021/10/02 04:41:28;;;;;;;16.00;11.98;;;13.30;99.90;;;;;;4961094;28;20027;-87
2021/10/02 04:43:54;;;;;;;14.57;11.85;;;13.30;99.90;;;;;;4961177;28;20418;-86
2021/10/02 04:46:21;;;;;;;17.30;12.00;;;13.30;99.90;;;;;;4961419;28;20015;-87
2021/10/02 04:48:48;;;;;;;18.20;12.57;;;13.30;99.90;;;;;;4977160;28;20478;-87
2021/10/02 04:51:14;;;;;;;17.02;11.98;;;13.30;99.90;;;;;;4977336;28;20034;-87
2021/10/02 04:53:40;;;;;;;15.32;13.15;;;13.30;99.90;;;;;;4961191;28;20073;-88
2021/10/02 04:56:11;;;;;;;15.85;13.65;;;13.30;99.90;;;;;;4945113;28;20027;-87
2021/10/02 04:58:38;;;;;;;18.35;14.98;;;13.30;99.90;;;;;;4945980;28;20023;-87
2021/10/02 05:01:08;;;;;;;15.48;13.23;;;13.30;99.90;;;;;;4961210;28;20149;-88
2021/10/02 05:03:36;;;;;;;17.42;13.55;;;13.30;99.90;;;;;;4960961;28;20439;-88
2021/10/02 05:06:04;;;;;;;15.73;13.27;;;13.30;99.90;;;;;;4978221;28;20499;-87
2021/10/02 05:08:32;;;;;;;18.50;13.93;;;13.30;99.90;;;;;;4945197;28;20053;-87
2021/10/02 05:11:00;;;;;;;17.38;14.73;;;13.30;99.90;;;;;;4960929;28;20031;-87
2021/10/02 05:13:27;;;;;;;16.08;12.95;;;13.30;99.90;;;;;;4960352;28;20117;-88
2021/10/02 05:15:54;;;;;;;16.42;14.00;;;13.30;99.90;;;;;;4978033;28;20400;-88
2021/10/02 05:18:21;;;;;;;16.15;13.82;;;13.30;99.90;;;;;;4960479;28;20058;-89
2021/10/02 05:20:47;;;;;;;18.98;14.48;;;13.20;99.90;;;;;;4960689;28;20035;-87
2021/10/02 05:23:15;;;;;;;17.88;15.10;;;13.20;99.90;;;;;;4960359;28;20463;-88
2021/10/02 05:25:41;;;;;;;17.60;14.15;;;13.10;99.90;;;;;;4960741;28;20049;-87
2021/10/02 05:28:06;;;;;;;17.02;13.30;;;13.10;99.90;;;;;;4960205;28;20047;-87
2021/10/02 05:30:33;;;;;;;19.83;15.77;;;13.10;99.90;;;;;;4959289;28;20044;-88
2021/10/02 05:32:58;;;;;;;17.70;14.70;;;13.00;99.90;;;;;;4960277;28;20015;-88
2021/10/02 05:35:25;;;;;;;18.58;14.30;;;13.00;99.90;;;;;;4960860;28;20014;-87
2021/10/02 05:37:51;;;;;;;18.30;13.93;;;13.00;99.90;;;;;;4977914;28;20027;-88
2021/10/02 05:40:18;;;;;;;19.02;15.27;;;13.00;99.90;;;;;;4960380;28;20031;-88
2021/10/02 05:42:44;;;;;;;17.10;13.50;;;13.00;99.90;;;;;;4944142;28;20051;-88
2021/10/02 05:45:10;;;;;;;19.80;13.98;;;13.00;99.90;;;;;;4978032;28;20073;-87
2021/10/02 05:47:36;;;;;;;15.93;13.05;;;12.90;99.90;;;;;;4960678;28;20030;-87
2021/10/02 05:50:46;;;;;;;15.32;13.32;;;12.80;99.90;;;;;;4962464;28;20464;-87
2021/10/02 05:56:34;;;;;;;15.52;13.65;;;12.70;99.90;;;;;;4979187;28;20131;-87
2021/10/02 05:59:00;;;;;;;16.45;13.38;;;12.60;99.90;;;;;;4977601;28;20464;-87
2021/10/02 06:01:28;;;;;;;15.60;12.75;;;12.60;99.90;;;;;;4979363;28;20034;-86
2021/10/02 06:03:54;;;;;;;12.43;10.85;;;12.50;99.90;;;;;;4962138;28;20026;-89
2021/10/02 06:06:22;;;;;;;17.17;12.15;;;12.50;99.90;;;;;;4960331;28;20029;-87
2021/10/02 06:08:49;;;;;;;15.40;12.32;;;12.50;99.90;;;;;;4961252;28;20027;-87
2021/10/02 06:11:16;;;;;;;17.00;13.30;;;12.50;99.90;;;;;;4960445;28;20031;-88
2021/10/02 06:20:13;;;;;;;15.60;13.20;;;12.50;99.90;;;;;;4980656;28;20053;-87
2021/10/02 06:22:39;;;;;;;18.67;14.88;;;12.40;99.90;;;;;;4946764;28;20031;-88
2021/10/02 06:25:10;;;;;;;18.38;13.20;;;12.50;99.90;;;;;;4962219;28;20031;-88
2021/10/02 06:27:38;;;;;;;16.15;13.52;;;12.50;99.90;;;;;;4961632;28;20029;-87
2021/10/02 06:33:27;;;;;;;17.73;14.38;;;12.50;99.90;;;;;;4977364;28;20490;-89
2021/10/02 06:35:53;;;;;;;21.52;16.17;;;12.60;99.90;;;;;;4977024;28;20463;-86
2021/10/02 06:38:21;;;;;;;20.02;16.23;;;12.60;99.90;;;;;;4958749;28;20023;-88
2021/10/02 06:40:49;;;;;;;25.48;19.55;;;12.60;99.90;;;;;;4967943;28;20054;-88
2021/10/02 06:43:17;;;;;;;22.63;18.35;;;12.70;99.90;;;;;;4975583;28;20051;-88
2021/10/02 06:45:44;;;;;;;20.55;17.27;;;12.70;99.90;;;;;;4976422;28;20110;-88
2021/10/02 06:48:13;;;;;;;23.90;18.45;;;12.80;99.90;;;;;;4958433;28;20058;-88
2021/10/02 06:51:05;;;;;;;25.52;17.83;;;12.70;99.90;;;;;;4941124;28;20154;-88
2021/10/02 06:53:32;;;;;;;19.50;15.73;;;12.80;99.90;;;;;;4925454;29;20027;-89
2021/10/02 06:55:59;;;;;;;21.60;16.15;;;12.90;99.90;;;;;;4969291;28;20995;-88
2021/10/02 06:58:24;;;;;;;19.67;16.42;;;12.90;99.90;;;;;;4942008;28;20458;-88
2021/10/02 07:00:52;;;;;;;24.70;17.80;;;13.00;99.90;;;;;;4974339;28;20007;-89
2021/10/02 07:03:18;;;;;;;23.17;17.52;;;13.00;99.90;;;;;;4940934;28;20362;-88
2021/10/02 07:05:45;;;;;;;20.90;16.08;;;13.10;99.90;;;;;;4974081;28;20015;-88
2021/10/02 07:08:12;;;;;;;23.67;17.88;;;13.20;99.90;;;;;;4956737;28;20478;-88
2021/10/02 07:10:38;;;;;;;20.88;17.60;;;13.20;99.90;;;;;;4956767;28;20034;-88
2021/10/02 07:13:05;;;;;;;22.48;16.65;;;13.30;99.90;;;;;;4955517;28;20019;-89
2021/10/02 07:15:35;;;;;;;20.52;15.23;;;13.40;99.90;;;;;;4952743;28;20109;-89
2021/10/02 07:18:01;;;;;;;22.98;16.88;;;13.50;99.90;;;;;;4954596;29;20029;-88
2021/10/02 07:20:31;;;;;;;25.40;17.00;;;13.50;99.90;;;;;;4920533;29;20388;-88
2021/10/02 07:22:59;;;;;;;20.85;15.82;;;13.50;99.90;;;;;;4937244;29;20055;-89
2021/10/02 07:25:35;;;;;;;20.45;16.55;;;13.60;99.90;;;;;;4920346;29;20028;-88
2021/10/02 07:28:05;;;;;;;21.35;16.83;;;13.70;99.90;;;;;;4920116;29;20058;-88
2021/10/02 07:30:34;;;;;;;22.13;17.48;;;13.70;99.90;;;;;;4919918;29;20519;-88
2021/10/02 07:40:34;;;;;;;24.00;17.52;;;13.70;99.90;;;;;;4937542;29;20062;-87
2021/10/02 07:43:04;;;;;;;22.13;15.23;;;13.80;99.90;;;;;;4942771;29;20054;-87
2021/10/02 07:45:37;;;;;;;16.83;14.25;;;13.90;99.90;;;;;;4949657;29;20363;-88
2021/10/02 07:48:04;;;;;;;16.35;14.00;;;13.90;99.90;;;;;;4954461;29;20123;-88
2021/10/02 07:50:30;;;;;;;20.23;15.73;;;14.00;99.90;;;;;;4953825;29;20341;-88
2021/10/02 07:53:07;;;;;;;19.70;14.45;;;14.10;99.90;;;;;;4954464;28;20056;-87
2021/10/02 07:55:33;;;;;;;16.33;14.50;;;14.10;99.90;;;;;;4953449;29;20173;-87
2021/10/02 07:57:59;;;;;;;25.10;16.70;;;14.20;99.90;;;;;;4953397;29;20094;-88
2021/10/02 08:00:25;;;;;;;21.52;15.65;;;14.30;99.90;;;;;;4954095;29;20046;-89
2021/10/02 08:02:53;;;;;;;19.55;15.45;;;14.40;99.90;;;;;;4953877;29;20023;-88
2021/10/02 08:05:21;;;;;;;18.45;15.32;;;14.50;99.90;;;;;;4938072;29;20118;-88
2021/10/02 08:07:48;;;;;;;19.27;15.35;;;14.50;99.90;;;;;;4953200;29;20039;-88
2021/10/02 08:10:20;;;;;;;17.38;13.68;;;14.60;99.90;;;;;;4955565;28;20023;-88
2021/10/02 08:12:46;;;;;;;18.15;14.07;;;14.60;99.90;;;;;;4939434;29;20031;-88
2021/10/02 08:15:14;;;;;;;18.92;16.13;;;14.70;99.90;;;;;;4954737;29;20022;-88
2021/10/02 08:17:43;;;;;;;21.38;15.20;;;14.60;99.90;;;;;;4923166;29;20039;-88
2021/10/02 08:20:13;;;;;;;17.33;14.85;;;14.60;99.90;;;;;;4930571;29;20027;-88
2021/10/02 08:22:49;;;;;;;16.88;13.98;;;14.60;99.90;;;;;;4944111;29;20027;-88
2021/10/02 08:28:50;;;;;;;13.18;11.68;;;14.70;99.90;;;;;;4913586;29;20563;-88
2021/10/02 08:31:18;;;;;;;15.82;13.50;;;14.80;99.90;;;;;;4890690;29;20031;-88
2021/10/02 08:33:46;;;;;;;16.80;12.98;;;14.80;99.90;;;;;;4950268;29;20118;-87
2021/10/02 08:39:23;;;;;;;14.68;12.50;;;14.90;99.90;;;;;;4957012;29;20032;-89
2021/10/02 08:42:18;;;;;;;15.93;12.00;;;14.90;99.90;;;;;;4955993;28;20031;-88
2021/10/02 08:44:44;;;;;;;12.40;10.93;;;15.10;99.90;;;;;;4970757;28;20031;-88
2021/10/02 08:47:12;;;;;;;14.57;10.77;;;15.10;99.90;;;;;;4942708;28;20018;-88
2021/10/02 08:49:45;;;;;;;12.05;9.15;;;15.20;99.90;;;;;;4968416;28;20027;-90
2021/10/02 08:52:14;;;;;;;13.02;9.93;;;15.30;99.90;;;;;;4928838;28;20023;-88
2021/10/02 08:54:43;;;;;;;13.60;10.20;;;15.30;99.90;;;;;;4950598;28;20019;-88
2021/10/02 08:57:12;;;;;;;11.32;8.13;;;15.40;99.90;;;;;;4963236;28;20027;-88
2021/10/02 08:59:39;;;;;;;9.05;7.65;;;15.40;99.90;;;;;;4956016;28;20343;-88
2021/10/02 09:02:09;;;;;;;10.82;8.30;;;15.40;99.90;;;;;;4940058;29;20032;-88
2021/10/02 09:05:09;;;;;;;14.18;8.13;;;15.40;99.90;;;;;;4923713;29;20062;-88
2021/10/02 09:07:38;;;;;;;10.30;8.20;;;15.50;99.90;;;;;;4958516;29;20027;-89
2021/10/02 09:10:11;;;;;;;10.32;8.48;;;15.60;99.90;;;;;;4957938;29;20026;-89
2021/10/02 09:12:44;;;;;;;11.75;9.05;;;15.70;99.90;;;;;;4959002;29;20514;-88
2021/10/02 09:15:14;;;;;;;10.90;8.23;;;15.60;99.90;;;;;;4958600;28;20359;-88
2021/10/02 09:17:42;;;;;;;10.35;8.48;;;15.50;99.90;;;;;;4926264;29;20420;-88
2021/10/02 09:20:11;;;;;;;12.50;9.40;;;15.40;99.90;;;;;;4961026;29;20459;-88
2021/10/02 09:22:50;;;;;;;9.63;7.18;;;15.40;99.90;;;;;;4941052;29;20019;-89
2021/10/02 09:25:16;;;;;;;12.43;9.38;;;15.50;99.90;;;;;;4940218;29;20167;-88
2021/10/02 09:27:41;;;;;;;11.82;9.35;;;15.90;99.90;;;;;;4940631;29;20031;-88
2021/10/02 09:30:11;;;;;;;13.80;9.27;;;16.60;99.90;;;;;;4941367;29;20105;-89
2021/10/02 09:32:43;;;;;;;10.02;8.27;;;17.60;99.90;;;;;;4958224;29;20502;-89
2021/10/02 09:35:18;;;;;;;9.55;7.00;;;18.20;99.90;;;;;;4941436;29;20035;-89
2021/10/02 09:37:51;;;;;;;11.13;6.30;;;18.20;99.90;;;;;;4937032;29;20036;-90
2021/10/02 09:40:22;;;;;;;11.82;6.65;;;18.20;99.90;;;;;;4934588;29;20138;-90
2021/10/02 09:43:39;;;;;;;9.75;5.78;;;17.70;99.90;;;;;;4945817;28;20042;-89
2021/10/02 09:46:05;;;;;;;7.68;5.13;;;17.20;99.90;;;;;;4955675;29;20023;-88
2021/10/02 09:48:32;;;;;;;10.35;5.28;;;17.10;99.90;;;;;;4956720;29;20042;-90
2021/10/02 09:51:46;;;;;;;10.02;5.60;;;17.10;99.90;;;;;;4940994;29;20026;-91
2021/10/02 09:54:34;;;;;;;8.48;5.22;;;17.10;99.90;;;;;;4956548;29;20035;-90
2021/10/02 09:57:15;;;;;;;7.70;4.10;;;17.90;99.90;;;;;;4940423;29;20043;-91
2021/10/02 09:59:45;;;;;;;5.15;3.50;;;18.50;99.90;;;;;;4945159;28;20031;-91
2021/10/02 10:02:28;;;;;;;7.40;3.78;;;19.10;99.90;;;;;;4975455;28;20122;-90
2021/10/02 10:05:11;;;;;;;7.43;3.90;;;19.70;99.90;;;;;;4964871;28;20041;-91
2021/10/02 10:11:15;;;;;;;8.32;3.60;;;19.00;99.90;;;;;;4940858;29;20032;-91
2021/10/02 10:13:58;;;;;;;7.30;3.67;;;18.30;99.90;;;;;;4921975;29;20040;-92
2021/10/02 10:16:42;;;;;;;8.07;4.40;;;17.80;99.90;;;;;;4904402;29;20037;-92
2021/10/02 10:19:17;;;;;;;7.25;3.50;;;17.40;99.90;;;;;;4932304;29;20036;-92
2021/10/02 10:24:59;;;;;;;6.82;3.60;;;16.80;99.90;;;;;;4917624;29;20084;-92
2021/10/02 10:27:48;;;;;;;7.18;3.60;;;16.70;99.90;;;;;;4918535;29;20024;-91
2021/10/02 10:33:55;;;;;;;7.43;3.92;;;16.90;99.90;;;;;;4917429;29;20107;-93
2021/10/02 10:36:28;;;;;;;8.15;3.53;;;16.90;99.90;;;;;;4917835;29;20028;-93
2021/10/02 10:42:15;;;;;;;5.43;3.08;;;17.20;99.90;;;;;;4917368;29;20551;-91
2021/10/02 10:44:50;;;;;;;4.57;2.78;;;17.40;99.90;;;;;;4919229;29;20048;-92
2021/10/02 10:47:16;;;;;;;3.97;3.13;;;17.70;99.90;;;;;;4917177;29;20099;-91
2021/10/02 10:53:07;;;;;;;6.03;2.97;;;17.70;99.90;;;;;;4918411;29;20568;-91
2021/10/02 10:59:03;;;;;;;3.88;2.35;;;17.50;99.90;;;;;;4922380;29;20507;-92
2021/10/02 11:01:35;;;;;;;4.50;2.20;;;17.80;99.90;;;;;;4898547;29;20029;-91
2021/10/02 11:10:49;;;;;;;4.25;1.85;;;18.20;99.90;;;;;;4965314;28;20097;-91
2021/10/02 11:14:02;;;;;;;3.45;1.77;;;18.00;99.90;;;;;;4958913;28;20019;-91
2021/10/02 11:16:35;;;;;;;2.92;1.48;;;17.80;99.90;;;;;;4977241;28;20467;-92
2021/10/02 11:19:01;;;;;;;2.20;1.55;;;17.50;99.90;;;;;;4974762;28;20018;-89
2021/10/02 11:21:57;;;;;;;3.95;1.73;;;17.30;99.90;;;;;;4973511;28;20142;-91
2021/10/02 11:24:34;;;;;;;2.88;1.30;;;17.20;99.90;;;;;;4972248;28;20105;-93
2021/10/02 11:27:03;;;;;;;3.60;1.50;;;17.10;99.90;;;;;;4973558;28;20092;-92
2021/10/02 11:29:31;;;;;;;3.90;1.50;;;17.00;99.90;;;;;;4972480;28;20027;-92
2021/10/02 11:32:48;;;;;;;2.80;1.50;;;17.00;99.90;;;;;;4957298;28;20038;-92
2021/10/02 11:35:39;;;;;;;3.58;1.77;;;16.90;99.90;;;;;;4950105;28;20184;-91
2021/10/02 11:38:08;;;;;;;4.20;1.50;;;16.90;99.90;;;;;;4939054;29;20023;-90
2021/10/02 11:40:36;;;;;;;2.97;1.75;;;17.10;99.90;;;;;;4938377;29;20409;-92
2021/10/02 11:43:23;;;;;;;2.58;1.35;;;17.30;99.90;;;;;;4952596;29;20047;-91
2021/10/02 11:45:48;;;;;;;2.63;1.40;;;17.60;99.90;;;;;;4954605;28;20035;-92
2021/10/02 11:48:14;;;;;;;3.65;1.55;;;17.90;99.90;;;;;;4956695;28;20050;-93
2021/10/02 11:50:47;;;;;;;3.55;1.70;;;18.00;99.90;;;;;;4956414;28;20031;-92
2021/10/02 11:53:23;;;;;;;2.88;1.52;;;18.00;99.90;;;;;;4955434;28;20467;-93
2021/10/02 11:55:54;;;;;;;3.13;1.38;;;17.90;99.90;;;;;;4958960;28;20465;-93
2021/10/02 11:58:23;;;;;;;3.25;1.90;;;17.70;99.90;;;;;;4993085;28;20022;-92
2021/10/02 12:00:48;;;;;;;5.40;1.60;;;17.60;99.90;;;;;;4976328;28;20467;-91
2021/10/02 12:03:30;;;;;;;2.95;1.40;;;17.60;99.90;;;;;;4967657;28;20046;-91
2021/10/02 12:06:01;;;;;;;4.68;1.90;;;18.20;99.90;;;;;;4973308;28;20034;-89
2021/10/02 12:08:28;;;;;;;3.92;1.75;;;19.00;99.90;;;;;;4973162;28;20463;-91
2021/10/02 12:11:07;;;;;;;3.85;1.30;;;20.00;99.90;;;;;;4972405;28;20022;-91
2021/10/02 12:13:49;;;;;;;3.22;1.27;;;20.30;99.90;;;;;;4954643;29;20502;-91
2021/10/02 12:16:24;;;;;;;3.95;1.67;;;19.90;99.90;;;;;;4953898;29;20024;-91
2021/10/02 12:18:57;;;;;;;3.05;1.42;;;19.50;99.90;;;;;;4952645;29;20127;-92
2021/10/02 12:21:28;;;;;;;3.75;1.50;;;19.10;99.90;;;;;;4953526;29;20023;-91
2021/10/02 12:24:02;;;;;;;3.83;1.58;;;19.00;99.90;;;;;;4953771;29;20031;-91
2021/10/02 12:27:10;;;;;;;4.07;1.25;;;19.00;99.90;;;;;;4966675;28;20554;-90
2021/10/02 12:29:39;;;;;;;1.65;1.10;;;19.00;99.90;;;;;;4957162;28;20498;-90
2021/10/02 12:32:21;;;;;;;2.55;1.20;;;18.90;99.90;;;;;;4958184;28;20023;-89
2021/10/02 12:35:00;;;;;;;2.13;1.13;;;18.80;99.90;;;;;;4974782;28;20023;-89
2021/10/02 12:37:56;;;;;;;3.22;1.30;;;18.70;99.90;;;;;;4981722;28;20039;-91
2021/10/02 12:40:27;;;;;;;3.28;1.30;;;18.50;99.90;;;;;;4964602;28;20565;-89
2021/10/02 12:42:59;;;;;;;2.10;1.30;;;18.30;99.90;;;;;;4957476;29;20094;-90
2021/10/02 12:45:37;;;;;;;5.65;1.55;;;18.20;99.90;;;;;;4936026;29;20633;-91
2021/10/02 12:48:04;;;;;;;4.03;1.40;;;18.10;99.90;;;;;;4943221;29;20070;-89
2021/10/02 12:50:38;;;;;;;2.47;1.40;;;18.00;99.90;;;;;;4936162;29;20035;-89
2021/10/02 12:53:06;;;;;;;2.78;1.20;;;17.90;99.90;;;;;;4944100;29;20467;-90
2021/10/02 12:55:46;;;;;;;;;;;;;;;;;;;;;
2021/10/02 12:58:23;;;;;;;4.07;1.30;;;17.90;99.90;;;;;;4936442;29;20042;-90
2021/10/02 13:00:54;;;;;;;2.08;1.00;;;17.80;99.90;;;;;;4951484;29;20019;-90
2021/10/02 13:03:23;;;;;;;2.78;1.05;;;17.80;99.90;;;;;;4934295;29;20150;-89
2021/10/02 13:06:00;;;;;;;2.90;1.00;;;17.80;99.90;;;;;;4949759;29;20047;-88
2021/10/02 13:08:27;;;;;;;1.90;1.00;;;17.80;99.90;;;;;;4949120;29;20371;-88
2021/10/02 13:10:57;;;;;;;2.45;1.10;;;18.00;99.90;;;;;;4933440;29;20033;-87
2021/10/02 13:13:24;;;;;;;2.72;1.10;;;18.00;99.90;;;;;;4941973;28;20070;-87
2021/10/02 13:16:00;;;;;;;2.60;0.95;;;18.00;99.90;;;;;;4939841;28;20160;-87
2021/10/02 13:18:30;;;;;;;2.08;1.15;;;18.00;99.90;;;;;;4956695;28;20023;-88
2021/10/02 13:21:03;;;;;;;2.35;1.08;;;17.90;99.90;;;;;;4939070;29;20485;-87
2021/10/02 13:23:40;;;;;;;2.28;1.15;;;17.90;99.90;;;;;;4956267;28;20102;-86
2021/10/02 13:26:10;;;;;;;3.15;0.90;;;17.80;99.90;;;;;;4952134;28;20019;-87
2021/10/02 13:28:55;;;;;;;3.83;1.08;;;17.70;99.90;;;;;;4958296;28;20056;-88
2021/10/02 13:31:24;;;;;;;2.58;1.10;;;17.70;99.90;;;;;;4954890;28;20047;-87
2021/10/02 13:33:56;;;;;;;2.63;1.23;;;17.70;99.90;;;;;;4936115;29;20034;-87
2021/10/02 13:36:31;;;;;;;1.83;1.20;;;17.70;99.90;;;;;;4933292;29;20131;-87
2021/10/02 13:39:13;;;;;;;2.88;1.65;;;17.70;99.90;;;;;;4933340;29;20038;-87
2021/10/02 13:41:40;;;;;;;2.60;1.60;;;17.70;99.90;;;;;;4935667;29;20029;-86
2021/10/02 13:44:07;;;;;;;2.00;1.20;;;17.60;99.90;;;;;;4938376;29;20341;-88
2021/10/02 13:46:37;;;;;;;2.40;1.30;;;17.60;99.90;;;;;;4928747;29;20024;-89
2021/10/02 13:49:07;;;;;;;2.50;1.20;;;17.60;99.90;;;;;;4950646;29;20449;-86
2021/10/02 13:51:33;;;;;;;2.85;1.20;;;17.60;99.90;;;;;;4937426;29;20034;-86
2021/10/02 13:54:00;;;;;;;1.83;1.15;;;17.50;99.90;;;;;;4938564;29;20031;-87
2021/10/02 13:56:37;;;;;;;2.28;1.05;;;17.50;99.90;;;;;;4956054;29;20023;-89
2021/10/02 13:59:04;;;;;;;4.05;1.20;;;17.60;99.90;;;;;;4922758;29;20047;-87
2021/10/02 14:01:33;;;;;;;2.17;1.30;;;17.50;99.90;;;;;;4936384;29;20020;-88
2021/10/02 14:04:00;;;;;;;3.88;1.00;;;17.50;99.90;;;;;;4917686;29;20507;-88
2021/10/02 14:06:27;;;;;;;1.77;1.00;;;17.50;99.90;;;;;;4928064;29;20086;-88
2021/10/02 14:08:54;;;;;;;2.13;1.10;;;17.50;99.90;;;;;;4923290;29;20059;-89
2021/10/02 14:11:21;;;;;;;2.75;1.60;;;17.40;99.90;;;;;;4932841;28;20012;-89
2021/10/02 14:13:48;;;;;;;2.95;1.40;;;17.40;99.90;;;;;;4964254;28;20027;-86
2021/10/02 14:16:21;;;;;;;2.72;1.13;;;17.40;99.90;;;;;;4953019;29;20118;-85
2021/10/02 14:18:50;;;;;;;1.17;0.68;;;17.40;99.90;;;;;;4937399;29;20475;-86
2021/10/02 14:21:17;;;;;;;2.50;1.15;;;17.40;99.90;;;;;;4953944;29;20130;-87
2021/10/02 14:23:47;;;;;;;1.98;1.20;;;17.30;99.90;;;;;;4931399;29;20023;-88
2021/10/02 14:26:13;;;;;;;2.13;1.10;;;17.40;99.90;;;;;;4931387;29;20056;-86
2021/10/02 14:28:41;;;;;;;3.00;1.20;;;17.40;99.90;;;;;;4924396;29;20027;-86
2021/10/02 14:31:06;;;;;;;3.05;1.42;;;17.50;99.90;;;;;;4951604;29;20117;-86
2021/10/02 14:33:32;;;;;;;2.00;0.90;;;17.40;99.90;;;;;;4953445;29;20464;-87
2021/10/02 14:35:59;;;;;;;1.45;1.13;;;17.50;99.90;;;;;;4937878;29;20039;-87
2021/10/02 14:38:25;;;;;;;2.45;1.20;;;17.50;99.90;;;;;;4937747;29;20020;-87
2021/10/02 14:40:52;;;;;;;2.50;1.30;;;17.50;99.90;;;;;;4937545;29;20031;-87
2021/10/02 14:43:21;;;;;;;1.92;1.00;;;17.50;99.90;;;;;;4946947;28;20121;-86
2021/10/02 14:46:07;;;;;;;1.95;1.20;;;17.50;99.90;;;;;;4940293;28;20114;-86
2021/10/02 14:48:34;;;;;;;3.42;1.30;;;17.50;99.90;;;;;;4973356;28;20023;-87
2021/10/02 14:51:12;;;;;;;2.65;1.30;;;17.50;99.90;;;;;;4924869;28;20046;-87
2021/10/02 14:53:43;;;;;;;2.38;1.23;;;17.50;99.90;;;;;;4956630;28;20018;-88
2021/10/02 14:56:10;;;;;;;3.10;1.30;;;17.50;99.90;;;;;;4946623;29;20037;-87